createdAt,value
2018-01-14T00:00:33.081Z,0.30
2018-01-14T00:03:01.750Z,0.30
2018-01-14T00:05:30.113Z,0.20
2018-01-14T00:07:58.490Z,0.30
2018-01-14T00:10:26.877Z,0.30
2018-01-14T00:12:55.281Z,0.20
2018-01-14T00:15:23.930Z,0.20
2018-01-14T00:17:52.320Z,0.20
2018-01-14T00:20:20.801Z,0.20
2018-01-14T00:22:49.684Z,0.20
2018-01-14T00:25:18.659Z,0.10
2018-01-14T00:27:47.652Z,0.10
2018-01-14T00:30:16.435Z,0.20
2018-01-14T00:32:44.819Z,0.10
2018-01-14T00:35:13.688Z,0.10
2018-01-14T00:37:42.766Z,0.20
2018-01-14T00:40:11.150Z,0.20
2018-01-14T00:42:39.522Z,0.10
2018-01-14T00:45:08.842Z,0.10
2018-01-14T00:47:38.266Z,0.20
2018-01-14T00:50:06.308Z,0.20
2018-01-14T00:52:35.717Z,0.10
2018-01-14T00:55:03.716Z,0.10
2018-01-14T00:57:32.047Z,0.10
2018-01-14T01:00:01.461Z,0.30
2018-01-14T01:02:29.849Z,0.20
2018-01-14T01:04:59.246Z,0.20
2018-01-14T01:07:27.837Z,0.20
2018-01-14T01:09:55.883Z,0.20
2018-01-14T01:12:24.295Z,0.10
2018-01-14T01:14:52.672Z,0.10
2018-01-14T01:17:21.829Z,0.10
2018-01-14T01:19:50.469Z,0.10
2018-01-14T01:22:19.164Z,0.10
2018-01-14T01:24:47.741Z,0.20
2018-01-14T01:27:16.380Z,0.20
2018-01-14T01:29:44.904Z,0.20
2018-01-14T01:32:13.280Z,0.10
2018-01-14T01:34:41.930Z,0.10
2018-01-14T01:37:10.580Z,0.10
2018-01-14T01:39:39.264Z,0.10
2018-01-14T01:42:07.636Z,0.10
2018-01-14T01:44:36.884Z,0.10
2018-01-14T01:47:05.545Z,0.10
2018-01-14T01:49:33.917Z,0.10
2018-01-14T01:52:03.339Z,0.10
2018-01-14T01:54:31.879Z,0.10
2018-01-14T01:57:01.014Z,0.20
2018-01-14T01:59:29.397Z,0.10
2018-01-14T02:01:57.785Z,0.10
2018-01-14T02:04:26.779Z,0.00
2018-01-14T02:06:55.433Z,0.00
2018-01-14T02:09:23.865Z,0.10
2018-01-14T02:11:52.249Z,0.10
2018-01-14T02:14:21.193Z,0.20
2018-01-14T02:16:49.573Z,0.20
2018-01-14T02:19:19.481Z,0.20
2018-01-14T02:21:49.069Z,0.20
2018-01-14T02:24:18.507Z,0.20
2018-01-14T02:26:47.277Z,0.20
2018-01-14T02:29:15.685Z,0.20
2018-01-14T02:31:44.083Z,0.20
2018-01-14T02:34:12.725Z,0.20
2018-01-14T02:36:41.380Z,0.20
2018-01-14T02:39:09.864Z,0.20
2018-01-14T02:41:38.246Z,0.20
2018-01-14T02:44:06.625Z,0.20
2018-01-14T02:46:36.048Z,0.20
2018-01-14T02:49:04.409Z,0.20
2018-01-14T02:51:32.780Z,0.10
2018-01-14T02:54:02.034Z,0.00
2018-01-14T02:56:30.213Z,0.00
2018-01-14T02:58:58.934Z,0.00
2018-01-14T03:01:27.326Z,0.00
2018-01-14T03:03:55.701Z,0.00
2018-01-14T03:06:24.185Z,0.10
2018-01-14T03:08:53.092Z,0.10
2018-01-14T03:11:22.685Z,0.10
2018-01-14T03:13:51.149Z,0.00
2018-01-14T03:16:20.483Z,0.10
2018-01-14T03:18:49.073Z,0.10
2018-01-14T03:21:17.721Z,0.10
2018-01-14T03:23:46.630Z,0.10
2018-01-14T03:26:16.157Z,0.00
2018-01-14T03:28:44.667Z,0.10
2018-01-14T03:31:13.330Z,0.00
2018-01-14T03:33:41.985Z,0.00
2018-01-14T03:36:10.349Z,0.00
2018-01-14T03:38:39.015Z,0.10
2018-01-14T03:41:07.498Z,0.10
2018-01-14T03:43:36.917Z,0.10
2018-01-14T03:46:06.320Z,0.10
2018-01-14T03:48:34.964Z,0.10
2018-01-14T03:51:03.466Z,0.10
2018-01-14T03:53:32.131Z,0.10
2018-01-14T03:56:00.743Z,0.00
2018-01-14T03:58:29.114Z,0.00
2018-01-14T04:00:57.722Z,0.00
2018-01-14T04:03:26.128Z,0.00
2018-01-14T04:05:55.290Z,0.20
2018-01-14T04:08:23.666Z,0.10
2018-01-14T04:10:52.860Z,0.10
2018-01-14T04:13:21.227Z,0.10
2018-01-14T04:15:51.460Z,0.10
2018-01-14T04:18:19.834Z,0.10
2018-01-14T04:20:48.430Z,0.20
2018-01-14T04:23:17.085Z,0.20
2018-01-14T04:25:46.506Z,0.10
2018-01-14T04:28:14.918Z,0.10
2018-01-14T04:30:43.305Z,0.10
2018-01-14T04:33:11.665Z,0.00
2018-01-14T04:35:40.409Z,0.10
2018-01-14T04:38:09.041Z,0.10
2018-01-14T04:40:38.301Z,0.10
2018-01-14T04:43:06.905Z,0.00
2018-01-14T04:45:35.567Z,0.00
2018-01-14T04:48:03.710Z,0.10
2018-01-14T04:50:32.369Z,0.00
2018-01-14T04:53:01.013Z,0.00
2018-01-14T04:55:30.424Z,0.10
2018-01-14T04:57:59.704Z,0.20
2018-01-14T05:00:28.089Z,0.20
2018-01-14T05:02:57.524Z,0.10
2018-01-14T05:05:26.169Z,0.10
2018-01-14T05:07:55.584Z,0.00
2018-01-14T05:10:23.956Z,0.00
2018-01-14T05:12:52.328Z,0.00
2018-01-14T05:15:20.902Z,0.00
2018-01-14T05:17:49.340Z,0.00
2018-01-14T05:20:17.986Z,0.00
2018-01-14T05:22:46.605Z,0.00
2018-01-14T05:25:15.292Z,0.00
2018-01-14T05:27:43.659Z,0.00
2018-01-14T05:30:12.054Z,0.00
2018-01-14T05:32:40.695Z,0.00
2018-01-14T05:35:08.745Z,0.00
2018-01-14T05:37:38.176Z,-0.10
2018-01-14T05:40:06.553Z,-0.10
2018-01-14T05:42:34.925Z,0.00
2018-01-14T05:45:04.153Z,0.00
2018-01-14T05:47:32.521Z,0.00
2018-01-14T05:50:00.889Z,0.10
2018-01-14T05:52:29.333Z,0.10
2018-01-14T05:54:57.697Z,0.00
2018-01-14T05:57:26.345Z,0.00
2018-01-14T05:59:55.040Z,0.00
2018-01-14T06:02:23.408Z,0.00
2018-01-14T06:04:51.865Z,0.10
2018-01-14T06:07:20.452Z,0.10
2018-01-14T06:09:49.106Z,0.10
2018-01-14T06:12:17.478Z,0.10
2018-01-14T06:14:46.168Z,0.10
2018-01-14T06:17:14.988Z,0.10
2018-01-14T06:19:43.644Z,0.10
2018-01-14T06:22:12.311Z,0.00
2018-01-14T06:24:40.858Z,0.00
2018-01-14T06:27:09.259Z,0.00
2018-01-14T06:29:37.717Z,0.00
2018-01-14T06:32:06.142Z,0.00
2018-01-14T06:34:34.505Z,0.00
2018-01-14T06:37:02.880Z,0.00
2018-01-14T06:39:31.539Z,-0.10
2018-01-14T06:41:59.909Z,0.00
2018-01-14T06:44:28.288Z,0.00
2018-01-14T06:46:56.899Z,0.00
2018-01-14T06:49:26.188Z,0.00
2018-01-14T06:51:55.343Z,0.00
2018-01-14T06:54:23.709Z,0.00
2018-01-14T06:56:52.081Z,0.00
2018-01-14T06:59:20.616Z,0.00
2018-01-14T07:01:49.756Z,0.00
2018-01-14T07:04:18.120Z,0.00
2018-01-14T07:06:46.620Z,0.00
2018-01-14T07:09:15.204Z,0.00
2018-01-14T07:11:43.898Z,0.00
2018-01-14T07:14:12.276Z,0.00
2018-01-14T07:16:40.650Z,0.00
2018-01-14T07:19:09.305Z,0.00
2018-01-14T07:21:37.886Z,0.00
2018-01-14T07:24:06.502Z,0.00
2018-01-14T07:26:35.161Z,0.00
2018-01-14T07:29:03.541Z,0.00
2018-01-14T07:31:31.921Z,0.10
2018-01-14T07:34:01.333Z,0.00
2018-01-14T07:36:29.993Z,0.00
2018-01-14T07:38:59.411Z,0.00
2018-01-14T07:41:27.805Z,0.00
2018-01-14T07:43:56.561Z,0.00
2018-01-14T07:46:25.365Z,0.00
2018-01-14T07:48:53.890Z,0.00
2018-01-14T07:51:23.172Z,0.10
2018-01-14T07:53:52.577Z,0.10
2018-01-14T07:56:21.185Z,0.00
2018-01-14T07:58:49.856Z,0.10
2018-01-14T08:01:19.271Z,0.10
2018-01-14T08:03:48.613Z,0.10
2018-01-14T08:06:17.195Z,0.10
2018-01-14T08:08:45.573Z,0.10
2018-01-14T08:11:14.257Z,0.10
2018-01-14T08:13:42.824Z,0.20
2018-01-14T08:16:11.460Z,0.20
2018-01-14T08:18:39.842Z,0.20
2018-01-14T08:21:08.496Z,0.30
2018-01-14T08:23:36.938Z,0.30
2018-01-14T08:26:05.586Z,0.30
2018-01-14T08:28:33.969Z,0.30
2018-01-14T08:31:02.705Z,0.20
2018-01-14T08:33:32.121Z,0.20
2018-01-14T08:36:00.614Z,0.20
2018-01-14T08:38:29.908Z,0.20
2018-01-14T08:40:58.687Z,0.20
2018-01-14T08:43:27.590Z,0.20
2018-01-14T08:45:55.961Z,0.20
2018-01-14T08:48:24.605Z,0.20
2018-01-14T08:50:53.253Z,0.20
2018-01-14T08:53:21.645Z,0.20
2018-01-14T08:55:50.509Z,0.20
2018-01-14T08:58:19.173Z,0.20
2018-01-14T09:00:47.545Z,0.20
2018-01-14T09:03:16.245Z,0.20
2018-01-14T09:05:45.011Z,0.20
2018-01-14T09:08:13.421Z,0.20
2018-01-14T09:10:41.809Z,0.20
2018-01-14T09:13:10.477Z,0.20
2018-01-14T09:15:38.855Z,0.30
2018-01-14T09:18:07.227Z,0.30
2018-01-14T09:20:35.616Z,0.30
2018-01-14T09:23:04.104Z,0.30
2018-01-14T09:25:32.808Z,0.20
2018-01-14T09:28:01.800Z,0.30
2018-01-14T09:30:41.370Z,0.30
2018-01-14T09:33:10.289Z,0.30
2018-01-14T09:35:38.661Z,0.40
2018-01-14T09:38:07.165Z,0.30
2018-01-14T09:40:36.153Z,0.30
2018-01-14T09:43:04.528Z,0.20
2018-01-14T09:45:33.169Z,0.20
2018-01-14T09:48:01.601Z,0.30
2018-01-14T09:50:29.969Z,0.20
2018-01-14T09:52:58.618Z,0.20
2018-01-14T09:55:27.163Z,0.20
2018-01-14T09:57:55.534Z,0.20
2018-01-14T10:00:23.973Z,0.20
2018-01-14T10:02:53.434Z,0.30
2018-01-14T10:05:22.829Z,0.30
2018-01-14T10:07:52.387Z,0.30
2018-01-14T10:10:20.797Z,0.20
2018-01-14T10:12:49.324Z,0.40
2018-01-14T10:15:17.828Z,0.40
2018-01-14T10:17:46.424Z,0.40
2018-01-14T10:20:15.608Z,0.50
2018-01-14T10:22:44.248Z,0.40
2018-01-14T10:25:14.112Z,0.40
2018-01-14T10:27:42.755Z,0.40
2018-01-14T10:30:11.120Z,0.50
2018-01-14T10:32:39.734Z,0.50
2018-01-14T10:35:08.908Z,0.50
2018-01-14T10:37:37.428Z,0.50
2018-01-14T10:40:06.959Z,0.50
2018-01-14T10:42:35.504Z,0.50
2018-01-14T10:45:03.900Z,0.50
2018-01-14T10:47:32.291Z,0.50
2018-01-14T10:50:00.674Z,0.50
2018-01-14T10:52:29.162Z,0.40
2018-01-14T10:54:57.837Z,0.40
2018-01-14T10:57:26.225Z,0.40
2018-01-14T10:59:54.604Z,0.30
2018-01-14T11:02:22.997Z,0.40
2018-01-14T11:04:52.143Z,0.60
2018-01-14T11:07:20.781Z,0.60
2018-01-14T11:09:49.928Z,0.40
2018-01-14T11:12:18.304Z,0.40
2018-01-14T11:14:46.967Z,0.50
2018-01-14T11:17:16.433Z,0.40
2018-01-14T11:19:45.104Z,0.50
2018-01-14T11:22:13.965Z,0.50
2018-01-14T11:24:42.621Z,0.60
2018-01-14T11:27:11.012Z,0.70
2018-01-14T11:29:40.933Z,0.80
2018-01-14T11:32:09.308Z,0.70
2018-01-14T11:34:39.328Z,0.80
2018-01-14T11:37:07.724Z,0.80
2018-01-14T11:39:36.386Z,0.80
2018-01-14T11:42:05.099Z,0.60
2018-01-14T11:44:33.789Z,0.60
2018-01-14T11:47:02.190Z,0.70
2018-01-14T11:49:31.450Z,0.90
2018-01-14T11:52:00.158Z,0.90
2018-01-14T11:54:29.738Z,0.90
2018-01-14T11:56:58.376Z,0.90
2018-01-14T11:59:26.976Z,0.80
2018-01-14T12:01:55.616Z,0.90
2018-01-14T12:04:25.086Z,0.90
2018-01-14T12:06:53.481Z,0.90
2018-01-14T12:09:21.946Z,0.80
2018-01-14T12:11:50.387Z,0.90
2018-01-14T12:14:19.113Z,0.80
2018-01-14T12:16:47.854Z,0.80
2018-01-14T12:19:16.476Z,0.70
2018-01-14T12:21:44.879Z,0.70
2018-01-14T12:24:13.547Z,0.70
2018-01-14T12:26:42.102Z,0.60
2018-01-14T12:29:10.928Z,0.60
2018-01-14T12:31:40.397Z,0.60
2018-01-14T12:37:12.647Z,0.50
2018-01-14T12:39:41.404Z,0.40
2018-01-14T12:42:10.170Z,0.50
2018-01-14T12:44:38.942Z,0.50
2018-01-14T12:47:07.411Z,0.50
2018-01-14T12:49:38.208Z,0.50
2018-01-14T12:52:07.021Z,0.60
2018-01-14T12:54:36.291Z,0.50
2018-01-14T12:57:04.899Z,0.50
2018-01-14T12:59:34.262Z,0.60
2018-01-14T13:02:02.820Z,0.60
2018-01-14T13:04:32.078Z,0.70
2018-01-14T13:07:01.078Z,0.70
2018-01-14T13:09:29.698Z,0.70
2018-01-14T13:11:58.434Z,0.80
2018-01-14T13:14:27.182Z,0.80
2018-01-14T13:16:56.164Z,0.80
2018-01-14T13:19:24.850Z,0.90
2018-01-14T13:21:53.395Z,1.00
2018-01-14T13:24:21.770Z,1.00
2018-01-14T13:26:50.452Z,0.90
2018-01-14T13:29:19.058Z,1.00
2018-01-14T13:31:48.684Z,1.00
2018-01-14T13:34:17.128Z,1.00
2018-01-14T13:36:45.541Z,1.00
2018-01-14T13:39:15.210Z,1.00
2018-01-14T13:41:43.699Z,1.10
2018-01-14T13:44:13.107Z,1.10
2018-01-14T13:46:41.877Z,1.10
2018-01-14T13:49:11.107Z,1.10
2018-01-14T13:51:39.542Z,1.10
2018-01-14T13:54:08.246Z,1.10
2018-01-14T13:56:36.640Z,1.10
2018-01-14T13:59:06.098Z,1.10
2018-01-14T14:01:34.814Z,1.00
2018-01-14T14:04:03.302Z,1.00
2018-01-14T14:06:32.825Z,1.00
2018-01-14T14:09:01.577Z,1.00
2018-01-14T14:11:30.819Z,0.90
2018-01-14T14:13:59.846Z,0.90
2018-01-14T14:16:29.369Z,0.90
2018-01-14T14:18:58.248Z,0.90
2018-01-14T14:21:27.077Z,0.80
2018-01-14T14:23:56.924Z,0.90
2018-01-14T14:26:25.469Z,0.90
2018-01-14T14:28:53.986Z,0.80
2018-01-14T14:31:22.929Z,0.70
2018-01-14T14:33:51.756Z,0.70
2018-01-14T14:36:20.695Z,0.70
2018-01-14T14:38:49.337Z,0.70
2018-01-14T14:41:18.716Z,0.70
2018-01-14T14:43:48.275Z,0.70
2018-01-14T14:46:17.675Z,0.70
2018-01-14T14:48:47.425Z,0.70
2018-01-14T14:51:17.329Z,0.70
2018-01-14T14:53:46.086Z,0.60
2018-01-14T14:56:15.672Z,0.70
2018-01-14T14:58:45.658Z,0.60
2018-01-14T15:01:14.734Z,0.60
2018-01-14T15:03:43.595Z,0.60
2018-01-14T15:06:12.663Z,0.60
2018-01-14T15:08:41.814Z,0.50
2018-01-14T15:11:11.143Z,0.60
2018-01-14T15:13:40.364Z,0.50
2018-01-14T15:16:10.351Z,0.50
2018-01-14T15:18:39.455Z,0.50
2018-01-14T15:21:09.044Z,0.50
2018-01-14T15:23:37.965Z,0.50
2018-01-14T15:26:07.126Z,0.50
2018-01-14T15:28:36.751Z,0.50
2018-01-14T15:31:05.649Z,0.50
2018-01-14T15:33:34.627Z,0.50
2018-01-14T15:36:03.730Z,0.50
2018-01-14T15:38:32.662Z,0.50
2018-01-14T15:41:01.714Z,0.50
2018-01-14T15:43:32.352Z,0.50
2018-01-14T15:46:01.382Z,0.50
2018-01-14T15:48:31.543Z,0.40
2018-01-14T15:51:00.356Z,0.40
2018-01-14T15:53:29.127Z,0.50
2018-01-14T15:55:58.136Z,0.40
2018-01-14T15:58:27.708Z,0.40
2018-01-14T16:01:00.069Z,0.40
2018-01-14T16:03:29.792Z,0.40
2018-01-14T16:05:58.701Z,0.40
2018-01-14T16:08:27.784Z,0.40
2018-01-14T16:10:58.342Z,0.40
2018-01-14T16:13:35.201Z,0.40
2018-01-14T16:16:04.002Z,0.40
2018-01-14T16:18:32.993Z,0.40
2018-01-14T16:21:07.696Z,0.40
2018-01-14T16:23:37.222Z,0.40
2018-01-14T16:26:06.718Z,0.40
2018-01-14T16:28:35.789Z,0.30
2018-01-14T16:31:05.253Z,0.40
2018-01-14T16:33:35.231Z,0.30
2018-01-14T16:36:05.640Z,0.30
2018-01-14T16:38:35.348Z,0.30
2018-01-14T16:41:05.343Z,0.30
2018-01-14T16:43:34.552Z,0.30
2018-01-14T16:46:03.675Z,0.30
2018-01-14T16:48:33.166Z,0.30
2018-01-14T16:51:02.121Z,0.30
2018-01-14T16:53:32.612Z,0.30
2018-01-14T16:56:01.679Z,0.30
2018-01-14T16:58:30.236Z,0.30
2018-01-14T17:01:09.529Z,0.30
2018-01-14T17:03:38.703Z,0.30
2018-01-14T17:06:07.085Z,0.30
2018-01-14T17:08:35.641Z,0.30
2018-01-14T17:11:04.501Z,0.20
2018-01-14T17:13:35.910Z,0.20
2018-01-14T17:16:05.177Z,0.20
2018-01-14T17:18:33.946Z,0.20
2018-01-14T17:21:03.590Z,0.20
2018-01-14T17:23:33.074Z,0.20
2018-01-14T17:26:04.844Z,0.20
2018-01-14T17:28:33.954Z,0.20
2018-01-14T17:31:04.900Z,0.10
2018-01-14T17:33:36.428Z,0.20
2018-01-14T17:36:05.081Z,0.20
2018-01-14T17:38:33.740Z,0.20
2018-01-14T17:41:11.150Z,0.20
2018-01-14T17:43:39.738Z,0.20
2018-01-14T17:46:13.116Z,0.20
2018-01-14T17:48:42.044Z,0.20
2018-01-14T17:51:11.234Z,0.30
2018-01-14T17:53:39.880Z,0.30
2018-01-14T17:56:09.233Z,0.30
2018-01-14T17:58:40.914Z,0.20
2018-01-14T18:01:09.762Z,0.30
2018-01-14T18:03:45.751Z,0.20
2018-01-14T18:06:14.405Z,0.20
2018-01-14T18:08:43.069Z,0.30
2018-01-14T18:11:16.835Z,0.30
2018-01-14T18:13:45.464Z,0.30
2018-01-14T18:16:21.351Z,0.30
2018-01-14T18:18:49.405Z,0.30
2018-01-14T18:21:17.922Z,0.30
2018-01-14T18:23:49.100Z,0.20
2018-01-14T18:26:17.626Z,0.20
2018-01-14T18:28:50.473Z,0.20
2018-01-14T18:31:18.861Z,0.30
2018-01-14T18:33:49.282Z,0.20
2018-01-14T18:36:17.779Z,0.20
2018-01-14T18:41:51.146Z,0.20
2018-01-14T18:44:23.895Z,0.10
2018-01-14T18:46:52.278Z,0.10
2018-01-14T18:49:20.662Z,0.10
2018-01-14T18:51:49.290Z,0.10
2018-01-14T18:54:23.855Z,0.10
2018-01-14T18:56:53.425Z,0.10
2018-01-14T18:59:22.857Z,0.10
2018-01-14T19:01:55.188Z,0.10
2018-01-14T19:04:23.569Z,0.00
2018-01-14T19:06:56.064Z,0.00
2018-01-14T19:09:24.457Z,0.10
2018-01-14T19:11:52.825Z,0.00
2018-01-14T19:14:22.282Z,0.00
2018-01-14T19:16:52.410Z,0.00
2018-01-14T19:19:26.698Z,0.00
2018-01-14T19:21:55.113Z,0.00
2018-01-14T19:24:27.297Z,0.00
2018-01-14T19:26:56.125Z,0.00
2018-01-14T19:29:26.175Z,0.00
2018-01-14T19:31:56.726Z,0.00
2018-01-14T19:34:26.197Z,0.00
2018-01-14T19:36:59.748Z,0.00
2018-01-14T19:39:28.300Z,0.00
2018-01-14T19:41:57.100Z,-0.10
2018-01-14T19:44:29.328Z,0.00
2018-01-14T19:46:58.888Z,0.00
2018-01-14T19:49:27.475Z,0.00
2018-01-14T19:51:58.476Z,0.00
2018-01-14T19:54:26.991Z,0.00
2018-01-14T19:57:00.299Z,0.00
2018-01-14T19:59:30.245Z,0.00
2018-01-14T20:01:59.432Z,0.00
2018-01-14T20:04:36.267Z,0.00
2018-01-14T20:07:05.744Z,-0.10
2018-01-14T20:09:34.592Z,-0.10
2018-01-14T20:12:03.278Z,-0.10
2018-01-14T20:14:32.086Z,-0.10
2018-01-14T20:17:02.762Z,-0.10
2018-01-14T20:19:32.220Z,-0.10
2018-01-14T20:22:06.682Z,0.00
2018-01-14T20:24:35.205Z,-0.10
2018-01-14T20:27:03.779Z,0.00
2018-01-14T20:29:32.816Z,0.00
2018-01-14T20:32:03.226Z,0.10
2018-01-14T20:34:33.735Z,0.00
2018-01-14T20:37:06.484Z,0.00
2018-01-14T20:39:35.218Z,0.00
2018-01-14T20:42:10.768Z,0.00
2018-01-14T20:44:44.589Z,0.00
2018-01-14T20:47:12.969Z,0.10
2018-01-14T20:49:41.683Z,0.00
2018-01-14T20:52:12.950Z,0.10
2018-01-14T20:54:44.279Z,0.10
2018-01-14T20:57:12.946Z,0.00
2018-01-14T20:59:41.758Z,0.00
2018-01-14T21:02:16.912Z,0.00
2018-01-14T21:04:45.604Z,0.00
2018-01-14T21:07:14.202Z,0.00
2018-01-14T21:09:42.954Z,0.00
2018-01-14T21:12:12.130Z,0.00
2018-01-14T21:14:41.684Z,0.00
2018-01-14T21:17:11.604Z,0.10
2018-01-14T21:19:41.106Z,0.10
2018-01-14T21:22:11.305Z,0.10
2018-01-14T21:24:44.057Z,0.00
2018-01-14T21:27:16.698Z,0.00
2018-01-14T21:29:46.133Z,0.00
2018-01-14T21:32:14.830Z,0.00
2018-01-14T21:34:43.482Z,0.00
2018-01-14T21:37:12.917Z,0.00
2018-01-14T21:39:41.294Z,0.00
2018-01-14T21:42:09.681Z,0.00
2018-01-14T21:44:38.081Z,-0.10
2018-01-14T21:47:06.745Z,0.00
2018-01-14T21:49:35.409Z,0.00
2018-01-14T21:52:04.169Z,0.00
2018-01-14T21:54:32.545Z,-0.10
2018-01-14T21:57:01.957Z,-0.10
2018-01-14T21:59:31.375Z,0.00
2018-01-14T22:01:59.756Z,-0.10
2018-01-14T22:04:28.335Z,0.00
2018-01-14T22:06:56.668Z,-0.10
2018-01-14T22:09:26.104Z,0.00
2018-01-14T22:11:54.473Z,0.00
2018-01-14T22:14:22.962Z,0.00
2018-01-14T22:16:51.338Z,-0.10
2018-01-14T22:19:19.712Z,-0.10
2018-01-14T22:21:48.104Z,-0.10
2018-01-14T22:24:16.481Z,-0.10
2018-01-14T22:26:44.865Z,-0.10
2018-01-14T22:29:13.890Z,-0.10
2018-01-14T22:31:42.261Z,-0.10
2018-01-14T22:34:11.629Z,-0.10
2018-01-14T22:36:40.426Z,-0.10
2018-01-14T22:39:09.183Z,-0.10
2018-01-14T22:41:38.505Z,-0.10
2018-01-14T22:44:07.217Z,-0.10
2018-01-14T22:46:35.602Z,-0.10
2018-01-14T22:49:04.321Z,-0.10
2018-01-14T22:51:32.709Z,-0.10
2018-01-14T22:54:01.085Z,-0.10
2018-01-14T22:56:29.997Z,-0.10
2018-01-14T22:58:58.212Z,-0.10
2018-01-14T23:01:26.609Z,-0.10
2018-01-14T23:03:55.760Z,-0.10
2018-01-14T23:06:24.433Z,-0.10
2018-01-14T23:08:53.401Z,-0.10
2018-01-14T23:11:21.884Z,-0.10
2018-01-14T23:13:51.317Z,-0.10
2018-01-14T23:16:19.974Z,-0.10
2018-01-14T23:18:49.385Z,-0.10
2018-01-14T23:21:18.092Z,0.00
2018-01-14T23:23:46.842Z,-0.10
2018-01-14T23:26:15.228Z,-0.10
2018-01-14T23:28:43.729Z,-0.10
2018-01-14T23:31:12.124Z,-0.10
2018-01-14T23:33:41.498Z,-0.10
2018-01-14T23:36:10.266Z,-0.10
2018-01-14T23:38:38.692Z,-0.10
2018-01-14T23:41:07.172Z,-0.10
2018-01-14T23:43:35.744Z,-0.10
2018-01-14T23:46:04.170Z,-0.20
2018-01-14T23:48:32.556Z,-0.30
2018-01-14T23:51:01.908Z,-0.50
2018-01-14T23:53:30.569Z,-0.50
2018-01-14T23:55:58.977Z,-0.50
2018-01-14T23:58:27.817Z,-0.60
